Time;durP1;ratioP1;P1;durP2;ratioP2;P2;SDS_P1;SDS_P2;PMS_P1;PMS_P2;Temp;Humidity;BMP_temperature;BMP_pressure;BME280_temperature;BME280_humidity;BME280_pressure;Samples;Min_cycle;Max_cycle;Signal;HPM_P1;HPM_P2
2022/04/12 02:49:12;;;;;;;;;;;;;;;;;;5150801;27;19912;-70
2022/04/12 02:51:37;;;;;;;;;;;;;;;;;;5151463;27;19911;-70
2022/04/12 02:54:03;;;;;;;;;;;;;;;;;;5150594;27;19930;-70
2022/04/12 02:56:29;;;;;;;;;;;;;;;;;;5151449;27;19907;-70
2022/04/12 02:58:55;;;;;;;;;;;;;;;;;;5151277;27;20348;-70
2022/04/12 03:01:21;;;;;;;;;;;;;;;;;;5150450;27;19907;-70
2022/04/12 03:03:47;;;;;;;;;;;;;;;;;;5151287;27;20325;-69
2022/04/12 03:06:13;;;;;;;;;;;;;;;;;;5150111;27;19907;-70
2022/04/12 03:08:39;;;;;;;;;;;;;;;;;;5151085;27;19912;-69
2022/04/12 03:11:05;;;;;;;;;;;;;;;;;;5150245;27;19946;-70
2022/04/12 03:13:31;;;;;;;;;;;;;;;;;;5151028;27;19907;-69
2022/04/12 03:15:57;;;;;;;;;;;;;;;;;;5151002;27;20337;-69
2022/04/12 03:18:22;;;;;;;;;;;;;;;;;;5150500;27;19915;-70
2022/04/12 03:20:51;;;;;;;;;;;;;;;;;;5150800;27;19960;-69
2022/04/12 03:23:17;;;;;;;;;;;;;;;;;;5150069;27;19907;-69
2022/04/12 03:25:43;;;;;;;;;;;;;;;;;;5150776;27;19998;-69
2022/04/12 03:28:09;;;;;;;;;;;;;;;;;;5149819;27;20290;-69
2022/04/12 03:30:35;;;;;;;;;;;;;;;;;;5150680;27;19911;-69
2022/04/12 03:33:01;;;;;;;;;;;;;;;;;;5150437;27;19907;-71
2022/04/12 03:35:26;;;;;;;;;;;;;;;;;;5150235;27;19911;-70
2022/04/12 03:37:52;;;;;;;;;;;;;;;;;;5150284;27;19915;-70
2022/04/12 03:40:18;;;;;;;;;;;;;;;;;;5131197;27;19914;-69
2022/04/12 03:42:44;;;;;;;;;;;;;;;;;;5132015;27;19980;-69
2022/04/12 03:45:10;;;;;;;;;;;;;;;;;;5149678;27;19912;-70
2022/04/12 03:47:38;;;;;;;;;;;;;;;;;;5150048;27;19927;-69
2022/04/12 03:50:04;;;;;;;;;;;;;;;;;;5149669;27;19916;-70
2022/04/12 03:52:31;;;;;;;;;;;;;;;;;;5150403;27;19914;-71
2022/04/12 03:54:57;;;;;;;;;;;;;;;;;;5150283;27;19930;-70
2022/04/12 03:57:25;;;;;;;;;;;;;;;;;;5149409;27;20358;-70
2022/04/12 03:59:51;;;;;;;;;;;;;;;;;;5138530;27;19955;-70
2022/04/12 04:02:17;;;;;;;;;;;;;;;;;;5135447;27;19994;-70
2022/04/12 04:04:42;;;;;;;;;;;10.10;1.00;;;;;;5136231;27;20002;-70
2022/04/12 04:07:08;;;;;;;;;;;;;;;;;;5135087;27;19996;-70
2022/04/12 04:09:34;;;;;;;;;;;;;;;;;;5136156;27;20007;-70
2022/04/12 04:12:03;;;;;;;;;;;;;;;;;;5136108;27;20271;-70
2022/04/12 04:14:31;;;;;;;;;;;;;;;;;;5135786;27;19947;-70
2022/04/12 04:16:57;;;;;;;;;;;;;;;;;;5136171;27;19930;-69
2022/04/12 04:19:23;;;;;;;;;;;;;;;;;;5135144;27;20363;-70
2022/04/12 04:21:49;;;;;;;;;;;;;;;;;;5135842;27;19907;-69
2022/04/12 04:24:15;;;;;;;;;;;;;;;;;;5135120;27;20392;-70
2022/04/12 04:26:42;;;;;;;;;;;;;;;;;;5135728;27;19912;-69
2022/04/12 04:29:08;;;;;;;;;;;;;;;;;;5134927;27;19978;-70
2022/04/12 04:31:34;;;;;;;;;;;;;;;;;;5135762;27;19912;-69
2022/04/12 04:34:00;;;;;;;;;;;;;;;;;;5135673;27;19908;-69
2022/04/12 04:36:26;;;;;;;;;;;;;;;;;;5134713;27;19903;-69
2022/04/12 04:38:52;;;;;;;;;;;;;;;;;;5135565;27;19907;-69
2022/04/12 04:41:17;;;;;;;;;;;;;;;;;;5134744;27;19915;-69
2022/04/12 04:43:45;;;;;;;;;;;;;;;;;;5117061;27;19960;-69
2022/04/12 04:46:11;;;;;;;;;;;;;;;;;;5134630;27;19907;-70
2022/04/12 04:48:38;;;;;;;;;;;;;;;;;;5135069;27;19920;-69
2022/04/12 04:51:04;;;;;;;;;;;;;;;;;;5116732;27;19915;-70
2022/04/12 04:53:30;;;;;;;;;;;;;;;;;;5134767;27;20252;-69
2022/04/12 04:55:56;;;;;;;;;;;;;;;;;;5135222;27;19937;-69
2022/04/12 04:58:22;;;;;;;;;;;;;;;;;;5115889;27;19908;-69
2022/04/12 05:00:48;;;;;;;;;;;;;;;;;;5116741;27;20279;-69
2022/04/12 05:03:14;;;;;;;;;;;;;;;;;;5134205;27;19908;-69
2022/04/12 05:05:40;;;;;;;;;;;;;;;;;;5113750;27;19923;-69
2022/04/12 05:08:06;;;;;;;;;;;;;;;;;;5134594;27;19954;-70
2022/04/12 05:10:32;;;;;;;;;;;;;;;;;;5133508;27;19956;-69
2022/04/12 05:12:58;;;;;;;;;;;;;;;;;;5116542;27;19908;-69
2022/04/12 05:15:24;;;;;;;;;;;;;;;;;;5113386;27;19918;-70
2022/04/12 05:17:52;;;;;;;;;;;;;;;;;;5121679;27;19912;-69
2022/04/12 05:20:18;;;;;;;;;;;;;;;;;;5095079;28;20010;-69
2022/04/12 05:22:44;;;;;;;;;;;;;;;;;;5096053;28;20011;-69
2022/04/12 05:25:10;;;;;;;;;;;;;;;;;;5113370;28;19915;-71
2022/04/12 05:27:36;;;;;;;;;;;;;;;;;;5113928;28;19911;-69
2022/04/12 05:30:02;;;;;;;;;;;;;;;;;;5114068;28;19958;-69
2022/04/12 05:32:28;;;;;;;;;;;;;;;;;;5113178;28;19960;-69
2022/04/12 05:34:54;;;;;;;;;;;;;;;;;;5113908;28;19954;-69
2022/04/12 05:37:20;;;;;;;;;;;;;;;;;;5119963;27;20422;-69
2022/04/12 05:39:45;;;;;;;;;;;;;;;;;;5134322;27;19908;-69
2022/04/12 05:42:11;;;;;;;;;;;;;;;;;;5133596;27;19951;-70
2022/04/12 05:44:37;;;;;;;;;;;;;;;;;;5134397;27;19907;-70
2022/04/12 05:47:03;;;;;;;;;;;;;;;;;;5133905;27;19923;-69
2022/04/12 05:49:29;;;;;;;;;;;;;;;;;;5130965;27;19918;-70
2022/04/12 05:51:55;;;;;;;;;;;;;;;;;;5113125;28;19916;-69
2022/04/12 05:54:21;;;;;;;;;;;;;;;;;;5118883;27;19943;-70
2022/04/12 05:56:46;;;;;;;;;;;10.50;1.00;;;;;;5130060;27;19907;-70
2022/04/12 05:59:12;;;;;;;;;;;10.70;1.00;;;;;;5132233;27;19918;-70
2022/04/12 06:01:41;;;;;;;;;;;;;;;;;;5133965;27;19907;-68
2022/04/12 06:04:07;;;;;;;;;;;;;;;;;;5133914;27;20002;-68
2022/04/12 06:06:33;;;;;;;;;;;;;;;;;;5133018;27;19971;-70
2022/04/12 06:08:59;;;;;;;;;;;;;;;;;;5133723;27;19943;-69
2022/04/12 06:11:25;;;;;;;;;;;;;;;;;;5132831;27;19911;-69
2022/04/12 06:13:50;;;;;;;;;;;;;;;;;;5133849;27;19930;-70
2022/04/12 06:16:16;;;;;;;;;;;;;;;;;;5132946;27;19952;-70
2022/04/12 06:18:42;;;;;;;;;;;;;;;;;;5114877;27;20006;-70
2022/04/12 06:21:08;;;;;;;;;;;;;;;;;;5118613;27;20298;-70
2022/04/12 06:23:34;;;;;;;;;;;;;;;;;;5123018;27;19990;-69
2022/04/12 06:26:00;;;;;;;;;;;;;;;;;;5107250;28;19946;-70
2022/04/12 06:28:26;;;;;;;;;;;;;;;;;;5112180;28;20321;-69
2022/04/12 06:30:52;;;;;;;;;;;10.80;1.00;;;;;;5115459;27;19912;-69
2022/04/12 06:33:18;;;;;;;;;;;;;;;;;;5121945;27;19972;-70
2022/04/12 06:35:44;;;;;;;;;;;;;;;;;;5123719;27;20383;-70
2022/04/12 06:38:11;;;;;;;;;;;;;;;;;;5133416;27;19914;-71
2022/04/12 06:40:36;;;;;;;;;;;;;;;;;;5126624;27;19918;-70
2022/04/12 06:43:02;;;;;;;;;;;;;;;;;;5131914;27;19907;-70
2022/04/12 06:45:28;;;;;;;;;;;;;;;;;;5118453;27;19912;-70
2022/04/12 06:47:54;;;;;;;;;;;;;;;;;;5112110;28;19923;-70
2022/04/12 06:50:20;;;;;;;;;;;;;;;;;;5093572;28;19912;-70
2022/04/12 06:52:46;;;;;;;;;;;;;;;;;;5112745;28;19908;-70
2022/04/12 06:55:12;;;;;;;;;;;;;;;;;;5112525;28;19907;-72
2022/04/12 06:57:38;;;;;;;;;;;;;;;;;;5112294;28;19915;-70
2022/04/12 07:00:04;;;;;;;;;;;;;;;;;;5112756;28;19957;-70
2022/04/12 07:02:30;;;;;;;;;;;;;;;;;;5111872;28;19915;-70
2022/04/12 07:04:56;;;;;;;;;;;;;;;;;;5112463;28;19930;-70
2022/04/12 07:07:22;;;;;;;;;;;;;;;;;;5111647;28;19916;-71
2022/04/12 07:09:48;;;;;;;;;;;;;;;;;;5112617;28;19915;-70
2022/04/12 07:12:13;;;;;;;;;;;;;;;;;;5112290;28;19915;-72
2022/04/12 07:14:39;;;;;;;;;;;;;;;;;;5112108;28;19907;-70
2022/04/12 07:17:05;;;;;;;;;;;;;;;;;;5112418;28;20008;-70
2022/04/12 07:19:31;;;;;;;;;;;;;;;;;;5093477;28;19962;-70
2022/04/12 07:21:57;;;;;;;;;;;;;;;;;;5112587;28;20379;-70
2022/04/12 07:24:23;;;;;;;;;;;;;;;;;;5111644;28;19921;-70
2022/04/12 07:26:49;;;;;;;;;;;;;;;;;;5112317;28;20391;-70
2022/04/12 07:29:15;;;;;;;;;;;;;;;;;;5111985;28;19919;-72
2022/04/12 07:31:41;;;;;;;;;;;;;;;;;;5112107;28;19919;-70
2022/04/12 07:34:07;;;;;;;;;;;;;;;;;;5113682;28;20325;-71
2022/04/12 07:36:33;;;;;;;;;;;;;;;;;;5115456;28;19955;-71
2022/04/12 07:38:59;;;;;;;;;;;;;;;;;;5097919;28;19908;-71
2022/04/12 07:41:25;;;;;;;;;;;;;;;;;;5115380;28;19911;-71
2022/04/12 07:43:52;;;;;;;;;;;;;;;;;;5116158;28;19915;-71
2022/04/12 07:46:18;;;;;;;;;;;;;;;;;;5097191;28;19908;-73
2022/04/12 07:48:44;;;;;;;;;;;;;;;;;;5115727;28;19972;-71
2022/04/12 07:51:10;;;;;;;;;;;;;;;;;;5115960;28;19912;-71
2022/04/12 07:53:37;;;;;;;;;;;;;;;;;;5096854;28;20631;-71
2022/04/12 07:56:02;;;;;;;;;;;;;;;;;;5115979;28;19960;-71
2022/04/12 07:58:28;;;;;;;;;;;;;;;;;;5115089;28;19916;-71
2022/04/12 08:00:54;;;;;;;;;;;;;;;;;;5115816;28;20006;-71
2022/04/12 08:03:21;;;;;;;;;;;;;;;;;;5096706;28;19914;-72
2022/04/12 08:05:47;;;;;;;;;;;;;;;;;;5115735;28;20268;-71
2022/04/12 08:08:13;;;;;;;;;;;;;;;;;;5115614;28;19911;-71
2022/04/12 08:10:38;;;;;;;;;;;;;;;;;;5096584;28;19912;-71
2022/04/12 08:13:04;;;;;;;;;;;;;;;;;;5115491;28;19934;-71
2022/04/12 08:15:30;;;;;;;;;;;;;;;;;;5114756;28;19951;-71
2022/04/12 08:17:56;;;;;;;;;;;;;;;;;;5115394;28;19960;-71
2022/04/12 08:20:22;;;;;;;;;;;;;;;;;;5096285;28;19912;-72
2022/04/12 08:22:49;;;;;;;;;;;;;;;;;;5115478;28;19908;-71
2022/04/12 08:25:15;;;;;;;;;;;;;;;;;;5115261;28;19912;-71
2022/04/12 08:27:41;;;;;;;;;;;;;;;;;;5114455;28;20287;-71
2022/04/12 08:30:07;;;;;;;;;;;;;;;;;;5115269;28;19930;-71
2022/04/12 08:32:33;;;;;;;;;;;;;;;;;;5114398;28;19951;-72
2022/04/12 08:34:59;;;;;;;;;;;;;;;;;;5115171;28;19915;-71
2022/04/12 08:37:25;;;;;;;;;;;;;;;;;;5114305;28;19957;-72
2022/04/12 08:39:51;;;;;;;;;;;;;;;;;;5115049;28;19998;-71
2022/04/12 08:42:17;;;;;;;;;;;;;;;;;;5114999;28;19992;-71
2022/04/12 08:44:42;;;;;;;;;;;;;;;;;;5114050;28;19908;-71
2022/04/12 08:47:09;;;;;;;;;;;;;;;;;;5114591;28;19927;-71
2022/04/12 08:49:35;;;;;;;;;;;;;;;;;;5114107;28;19916;-72
2022/04/12 08:52:01;;;;;;;;;;;;;;;;;;5114854;28;20394;-71
2022/04/12 08:54:27;;;;;;;;;;;;;;;;;;5113990;28;19908;-72
2022/04/12 08:56:53;;;;;;;;;;;;;;;;;;5114760;28;19931;-72
2022/04/12 08:59:19;;;;;;;;;;;;;;;;;;5114561;28;19908;-73
2022/04/12 09:01:46;;;;;;;;;;;;;;;;;;5113696;27;19926;-72
2022/04/12 09:04:12;;;;;;;;;;;;;;;;;;5134493;27;20348;-71
2022/04/12 09:06:38;;;;;;;;;;;;;;;;;;5126810;27;19961;-71
2022/04/12 09:09:04;;;;;;;;;;;;;;;;;;5115423;27;19957;-71
2022/04/12 09:11:33;;;;;;;;;;;;;;;;;;5124764;27;20410;-71
2022/04/12 09:13:59;;;;;;;;;;;;;;;;;;5121755;27;20003;-71
2022/04/12 09:16:25;;;;;;;;;;;;;;;;;;5134089;27;20010;-72
2022/04/12 09:18:51;;;;;;;;;;;;;;;;;;5116449;27;20439;-71
2022/04/12 09:21:17;;;;;;;;;;;;;;;;;;5133985;27;20263;-71
2022/04/12 09:23:43;;;;;;;;;;;;;;;;;;5127192;27;20514;-70
2022/04/12 09:26:09;;;;;;;;;;;;;;;;;;5120348;27;19915;-71
2022/04/12 09:28:35;;;;;;;;;;;;;;;;;;5127068;27;19926;-65
2022/04/12 09:31:01;;;;;;;;;;;;;;;;;;5117735;27;20329;-71
2022/04/12 09:33:27;;;;;;;;;;;;;;;;;;5132079;27;19911;-71
2022/04/12 09:35:53;;;;;;;;;;;17.10;1.00;;;;;;5134585;27;20349;-73
2022/04/12 09:38:18;;;;;;;;;;;;;;;;;;5132721;27;19911;-72
2022/04/12 09:40:45;;;;;;;;;;;;;;;;;;5126963;27;19918;-72
2022/04/12 09:43:11;;;;;;;;;;;;;;;;;;5125936;27;19919;-72
2022/04/12 09:45:37;;;;;;;;;;;;;;;;;;5115216;27;19912;-73
2022/04/12 09:48:03;;;;;;;;;;;;;;;;;;5123768;27;19919;-73
2022/04/12 09:50:29;;;;;;;;;;;;;;;;;;5130742;27;19988;-72
2022/04/12 09:52:55;;;;;;;;;;;;;;;;;;5132460;27;19911;-72
2022/04/12 09:55:20;;;;;;;;;;;;;;;;;;5134107;27;20014;-72
2022/04/12 09:57:46;;;;;;;;;;;;;;;;;;5132861;27;19915;-72
2022/04/12 10:00:12;;;;;;;;;;;;;;;;;;5132451;27;20368;-73
2022/04/12 10:02:38;;;;;;;;;;;;;;;;;;5111048;27;19918;-74
2022/04/12 10:05:05;;;;;;;;;;;;;;;;;;5126011;27;20321;-72
2022/04/12 10:07:31;;;;;;;;;;;;;;;;;;5108693;28;19911;-72
2022/04/12 10:09:58;;;;;;;;;;;;;;;;;;5117430;27;19907;-72
2022/04/12 10:12:24;;;;;;;;;;;;;;;;;;5115150;27;20428;-73
2022/04/12 10:14:49;;;;;;;;;;;;;;;;;;5132625;27;19911;-72
2022/04/12 10:17:15;;;;;;;;;;;;;;;;;;5104436;27;19923;-70
2022/04/12 10:19:41;;;;;;;;;;;;;;;;;;5120927;27;20010;-71
2022/04/12 10:22:07;;;;;;;;;;;;;;;;;;5122293;27;19958;-73
2022/04/12 10:24:33;;;;;;;;;;;;;;;;;;5122008;27;20423;-71
2022/04/12 10:26:59;;;;;;;;;;;;;;;;;;5122869;27;19911;-70
2022/04/12 10:29:25;;;;;;;;;;;;;;;;;;5119800;27;19929;-76
2022/04/12 10:31:51;;;;;;;;;;;;;;;;;;5102374;28;20386;-71
2022/04/12 10:34:17;;;;;;;;;;;;;;;;;;5104593;27;19921;-70
2022/04/12 10:36:42;;;;;;;;;;;;;;;;;;5120315;27;20328;-71
2022/04/12 10:39:08;;;;;;;;;;;;;;;;;;5121855;27;19907;-73
2022/04/12 10:41:34;;;;;;;;;;;;;;;;;;5121898;27;19912;-69
2022/04/12 10:44:01;;;;;;;;;;;;;;;;;;5123822;27;19907;-71
2022/04/12 10:46:28;;;;;;;;;;;;;;;;;;5131452;27;19914;-72
2022/04/12 10:48:54;;;;;;;;;;;;;;;;;;5126291;28;19923;-70
2022/04/12 10:51:20;;;;;;;;;;;;;;;;;;5106174;28;20007;-72
2022/04/12 10:53:46;;;;;;;;;;;;;;;;;;5111255;28;20002;-70
2022/04/12 10:56:12;;;;;;;;;;;;;;;;;;5123534;28;19911;-71
2022/04/12 10:58:38;;;;;;;;;;;;;;;;;;5108605;28;19998;-71
2022/04/12 11:01:04;;;;;;;;;;;;;;;;;;5110697;28;19911;-71
2022/04/12 11:03:30;;;;;;;;;;;;;;;;;;5117792;28;19907;-73
2022/04/12 11:05:55;;;;;;;;;;;;;;;;;;5109267;28;20375;-72
2022/04/12 11:08:21;;;;;;;;;;;;;;;;;;5109120;28;20014;-72
2022/04/12 11:10:47;;;;;;;;;;;;;;;;;;5096733;27;19972;-72
2022/04/12 11:13:13;;;;;;;;;;;;;;;;;;5101686;27;20358;-72
2022/04/12 11:15:40;;;;;;;;;;;;;;;;;;5122267;27;19908;-75
2022/04/12 11:18:06;;;;;;;;;;;;;;;;;;5113581;28;19927;-72
2022/04/12 11:20:31;;;;;;;;;;;;;;;;;;5112555;28;20283;-72
2022/04/12 11:22:58;;;;;;;;;;;;;;;;;;5124135;27;19915;-72
2022/04/12 11:25:26;;;;;;;;;;;;;;;;;;5113150;28;20403;-72
2022/04/12 11:27:52;;;;;;;;;;;;;;;;;;5094012;28;19955;-72
2022/04/12 11:30:18;;;;;;;;;;;;;;;;;;5122443;27;19977;-72
2022/04/12 11:32:43;;;;;;;;;;;;;;;;;;5114767;27;20398;-72
2022/04/12 11:35:09;;;;;;;;;;;;;;;;;;5119627;27;19919;-72
2022/04/12 11:37:35;;;;;;;;;;;;;;;;;;5112647;27;20288;-72
2022/04/12 11:40:02;;;;;;;;;;;;;;;;;;5112956;28;19908;-72
2022/04/12 11:42:28;;;;;;;;;;;;;;;;;;5118002;27;19916;-72
2022/04/12 11:44:54;;;;;;;;;;;;;;;;;;5112049;28;19912;-72
2022/04/12 11:47:19;;;;;;;;;;;;;;;;;;5123256;27;19927;-73
2022/04/12 11:49:45;;;;;;;;;;;;;;;;;;5122492;27;19920;-72
2022/04/12 11:52:11;;;;;;;;;;;;;;;;;;5112640;27;20712;-72
2022/04/12 11:54:37;;;;;;;;;;;;;;;;;;5126972;27;19907;-73
2022/04/12 11:57:03;;;;;;;;;;;;;;;;;;5116810;27;20364;-73
2022/04/12 11:59:29;;;;;;;;;;;;;;;;;;5124429;27;20287;-73
2022/04/12 12:01:59;;;;;;;;;;;;;;;;;;5132502;27;19960;-73
2022/04/12 12:04:29;;;;;;;;;;;;;;;;;;5132838;27;20360;-73
2022/04/12 12:06:54;;;;;;;;;;;;;;;;;;5128057;27;19911;-73
2022/04/12 12:09:20;;;;;;;;;;;;;;;;;;5132933;27;20287;-73
2022/04/12 12:11:46;;;;;;;;;;;;;;;;;;5131477;27;19950;-73
2022/04/12 12:14:12;;;;;;;;;;;;;;;;;;5128336;27;20324;-73
2022/04/12 12:16:38;;;;;;;;;;;;;;;;;;5130297;27;19911;-74
2022/04/12 12:19:04;;;;;;;;;;;;;;;;;;5129161;27;19941;-73
2022/04/12 12:21:30;;;;;;;;;;;;;;;;;;5130547;27;20434;-69
2022/04/12 12:23:56;;;;;;;;;;;;;;;;;;5131666;27;19914;-69
2022/04/12 12:26:22;;;;;;;;;;;;;;;;;;5132734;27;20372;-67
2022/04/12 12:28:48;;;;;;;;;;;;;;;;;;5126337;27;19956;-66
2022/04/12 12:31:14;;;;;;;;;;;;;;;;;;5130189;27;19930;-65
2022/04/12 12:33:44;;;;;;;;;;;;;;;;;;5134093;27;20410;-67
2022/04/12 12:36:10;;;;;;;;;;;;;;;;;;5135761;27;19982;-65
2022/04/12 12:38:36;;;;;;;;;;;;;;;;;;5135704;27;19956;-67
2022/04/12 12:41:02;;;;;;;;;;;;;;;;;;5136078;27;19933;-66
2022/04/12 12:43:28;;;;;;;;;;;;;;;;;;5135865;27;20359;-64
2022/04/12 12:45:54;;;;;;;;;;;;;;;;;;5134688;27;19903;-64
2022/04/12 12:48:20;;;;;;;;;;;;;;;;;;5096422;28;20010;-75
2022/04/12 12:50:46;;;;;;;;;;;;;;;;;;5114089;28;19937;-74
2022/04/12 12:53:12;;;;;;;;;;;;;;;;;;5114902;28;20328;-74
2022/04/12 12:55:38;;;;;;;;;;;;;;;;;;5095794;28;19908;-74
2022/04/12 12:58:03;;;;;;;;;;;;;;;;;;5114873;28;19915;-74
2022/04/12 13:00:29;;;;;;;;;;;;;;;;;;5114674;28;19955;-75
2022/04/12 13:02:55;;;;;;;;;;;;;;;;;;5113766;28;19915;-74
2022/04/12 13:05:21;;;;;;;;;;;;;;;;;;5114501;28;19964;-74
2022/04/12 13:07:47;;;;;;;;;;;;;;;;;;5113719;28;20278;-74
2022/04/12 13:10:13;;;;;;;;;;;;;;;;;;5114535;28;19907;-74
2022/04/12 13:12:39;;;;;;;;;;;;;;;;;;5113634;28;19915;-74
2022/04/12 13:15:05;;;;;;;;;;;;;;;;;;5114423;28;19919;-74
2022/04/12 13:17:31;;;;;;;;;;;;;;;;;;5114243;28;19955;-75
2022/04/12 13:19:57;;;;;;;;;;;;;;;;;;5113454;28;20378;-74
2022/04/12 13:22:22;;;;;;;;;;;;;;;;;;5114290;28;19914;-74
2022/04/12 13:24:48;;;;;;;;;;;;;;;;;;5113451;28;20283;-74
2022/04/12 13:27:14;;;;;;;;;;;;;;;;;;5114102;28;19912;-74
2022/04/12 13:29:40;;;;;;;;;;;;;;;;;;5113262;28;19911;-74
2022/04/12 13:32:06;;;;;;;;;;;;;;;;;;5113287;28;20260;-74
2022/04/12 13:34:32;;;;;;;;;;;;;;;;;;5114013;28;19995;-73
2022/04/12 13:36:58;;;;;;;;;;;;;;;;;;5113078;28;20267;-73
2022/04/12 13:39:24;;;;;;;;;;;;;;;;;;5113889;28;19908;-73
2022/04/12 13:41:50;;;;;;;;;;;;;;;;;;5113115;28;19908;-74
2022/04/12 13:44:16;;;;;;;;;;;;;;;;;;5113731;28;19912;-74
2022/04/12 13:46:41;;;;;;;;;;;;;;;;;;5112711;28;20291;-74
2022/04/12 13:49:08;;;;;;;;;;;;;;;;;;5113821;28;20416;-76
2022/04/12 13:51:34;;;;;;;;;;;;;;;;;;5113756;28;19914;-75
2022/04/12 13:54:00;;;;;;;;;;;;;;;;;;5112850;28;19994;-73
2022/04/12 13:56:26;;;;;;;;;;;;;;;;;;5095317;28;19912;-73
2022/04/12 13:58:52;;;;;;;;;;;;;;;;;;5112771;28;19916;-73
2022/04/12 14:01:18;;;;;;;;;;;;;;;;;;5113505;28;19908;-73
2022/04/12 14:03:43;;;;;;;;;;;;;;;;;;5112726;28;19950;-73
2022/04/12 14:06:10;;;;;;;;;;;;;;;;;;5113421;28;20332;-75
2022/04/12 14:08:36;;;;;;;;;;;;;;;;;;5095098;28;19915;-74
2022/04/12 14:11:01;;;;;;;;;;;;;;;;;;5112632;28;20326;-74
2022/04/12 14:13:27;;;;;;;;;;;;;;;;;;5113329;28;19908;-74
2022/04/12 14:15:53;;;;;;;;;;;;;;;;;;5094178;28;19907;-73
2022/04/12 14:18:19;;;;;;;;;;;;;;;;;;5113675;28;20284;-73
2022/04/12 14:20:45;;;;;;;;;;;;;;;;;;5112405;28;19935;-73
2022/04/12 14:23:11;;;;;;;;;;;;;;;;;;5113192;28;20360;-76
2022/04/12 14:25:37;;;;;;;;;;;;;;;;;;5113111;28;20049;-74
2022/04/12 14:28:03;;;;;;;;;;;;;;;;;;5112420;28;20382;-73
2022/04/12 14:30:29;;;;;;;;;;;;;;;;;;5113135;28;19908;-73
2022/04/12 14:32:55;;;;;;;;;;;;;;;;;;5112202;28;19915;-74
2022/04/12 14:35:21;;;;;;;;;;;;;;;;;;5094754;28;20003;-76
2022/04/12 14:37:46;;;;;;;;;;;;;;;;;;5112187;28;19908;-74
2022/04/12 14:40:12;;;;;;;;;;;;;;;;;;5112961;28;20283;-73
2022/04/12 14:42:38;;;;;;;;;;;;;;;;;;5112618;28;19908;-73
2022/04/12 14:45:04;;;;;;;;;;;;;;;;;;5112265;28;19908;-74
2022/04/12 14:47:31;;;;;;;;;;;;;;;;;;5112456;28;19926;-76
2022/04/12 14:49:57;;;;;;;;;;;;;;;;;;5112051;28;19912;-74
2022/04/12 14:52:24;;;;;;;;;;;;;;;;;;5112784;28;19908;-73
2022/04/12 14:54:50;;;;;;;;;;;;;;;;;;5112016;28;19908;-73
2022/04/12 14:57:16;;;;;;;;;;;;;;;;;;5112765;28;19911;-76
2022/04/12 14:59:41;;;;;;;;;;;;;;;;;;5112360;28;20399;-76
2022/04/12 15:02:07;;;;;;;;;;;;;;;;;;5112448;28;19955;-76
2022/04/12 15:04:33;;;;;;;;;;;;;;;;;;5112743;28;19984;-76
2022/04/12 15:07:00;;;;;;;;;;;;;;;;;;5111794;28;19919;-75
2022/04/12 15:09:26;;;;;;;;;;;;;;;;;;5112627;28;19934;-75
2022/04/12 15:11:52;;;;;;;;;;;;;;;;;;5111777;28;20360;-75
2022/04/12 15:14:18;;;;;;;;;;;;;;;;;;5112685;28;19908;-76
2022/04/12 15:16:44;;;;;;;;;;;;;;;;;;5111982;28;19908;-76
2022/04/12 15:19:09;;;;;;;;;;;;;;;;;;5112482;28;19999;-76
2022/04/12 15:21:40;;;;;;;;;;;;;;;;;;5112517;28;19919;-75
2022/04/12 15:24:06;;;;;;;;;;;;;;;;;;5111804;28;20338;-76
2022/04/12 15:26:32;;;;;;;;;;;;;;;;;;5112561;28;19962;-76
2022/04/12 15:28:58;;;;;;;;;;;;;;;;;;5111633;28;19911;-76
2022/04/12 15:31:23;;;;;;;;;;;;;;;;;;5112396;28;20390;-75
2022/04/12 15:33:51;;;;;;;;;;;;;;;;;;5111494;28;19911;-76
2022/04/12 15:36:17;;;;;;;;;;;;;;;;;;5112377;28;20285;-76
2022/04/12 15:38:49;;;;;;;;;;;;;;;;;;5111961;28;19908;-75
2022/04/12 15:41:15;;;;;;;;;;;;;;;;;;5112523;28;19914;-83
2022/04/12 15:43:41;;;;;;;;;;;;;;;;;;5112294;28;19908;-76
2022/04/12 15:46:07;;;;;;;;;;;;;;;;;;5111506;28;19912;-75
2022/04/12 15:48:32;;;;;;;;;;;;;;;;;;5111936;28;20012;-74
2022/04/12 15:50:58;;;;;;;;;;;;;;;;;;5111421;28;20053;-74
2022/04/12 15:53:24;;;;;;;;;;;;;;;;;;5093981;28;20353;-74
2022/04/12 15:55:50;;;;;;;;;;;;;;;;;;5113653;28;19911;-73
2022/04/12 15:58:16;;;;;;;;;;;;;;;;;;5115778;28;20291;-73
2022/04/12 16:00:42;;;;;;;;;;;;;;;;;;5115634;28;19916;-73
2022/04/12 16:03:08;;;;;;;;;;;;;;;;;;5114943;28;20346;-74
2022/04/12 16:05:34;;;;;;;;;;;;;;;;;;5115990;28;19915;-77
2022/04/12 16:07:59;;;;;;;;;;;;;;;;;;5114860;28;19912;-76
2022/04/12 16:10:28;;;;;;;;;;;;;;;;;;5115619;28;19912;-75
2022/04/12 16:12:54;;;;;;;;;;;;;;;;;;5114844;28;19908;-75
2022/04/12 16:15:20;;;;;;;;;;;;;;;;;;5115544;28;19915;-75
2022/04/12 16:17:46;;;;;;;;;;;;;;;;;;5115370;28;20272;-73
2022/04/12 16:20:12;;;;;;;;;;;;;;;;;;5115203;28;19947;-77
2022/04/12 16:22:38;;;;;;;;;;;;;;;;;;5115451;28;20275;-77
2022/04/12 16:25:04;;;;;;;;;;;;;;;;;;5096329;28;19915;-77
2022/04/12 16:27:29;;;;;;;;;;;;;;;;;;5115278;28;19967;-80
2022/04/12 16:29:57;;;;;;;;;;;;;;;;;;5114457;28;19999;-78
2022/04/12 16:32:23;;;;;;;;;;;;;;;;;;5115330;28;20437;-76
2022/04/12 16:34:49;;;;;;;;;;;;;;;;;;5096274;28;19908;-75
2022/04/12 16:37:14;;;;;;;;;;;;;;;;;;5115036;28;19908;-75
2022/04/12 16:39:40;;;;;;;;;;;;;;;;;;5119187;27;19914;-75
2022/04/12 16:42:06;;;;;;;;;;;;;;;;;;5134529;27;19915;-75
2022/04/12 16:44:33;;;;;;;;;;;;;;;;;;5132938;27;20321;-79
2022/04/12 16:46:59;;;;;;;;;;;;;;;;;;5118948;27;19919;-79
2022/04/12 16:49:25;;;;;;;;;;;;;;;;;;5123937;27;19961;-79
2022/04/12 16:51:50;;;;;;;;;;;23.20;1.00;;;;;;5121491;27;19956;-75
2022/04/12 16:54:16;;;;;;;;;;;;;;;;;;5119082;27;20424;-76
2022/04/12 16:56:42;;;;;;;;;;;;;;;;;;5125868;27;19911;-76
2022/04/12 16:59:08;;;;;;;;;;;;;;;;;;5117411;27;19915;-76
2022/04/12 17:01:34;;;;;;;;;;;;;;;;;;5132644;27;20398;-77
2022/04/12 17:04:00;;;;;;;;;;;;;;;;;;5116005;27;20352;-76
2022/04/12 17:06:26;;;;;;;;;;;;;;;;;;5135285;27;19918;-77
2022/04/12 17:08:52;;;;;;;;;;;;;;;;;;5134649;27;19911;-79
2022/04/12 17:11:18;;;;;;;;;;;;;;;;;;5133331;27;19932;-80
2022/04/12 17:13:44;;;;;;;;;;;;;;;;;;5133365;27;19915;-78
2022/04/12 17:16:10;;;;;;;;;;;;;;;;;;5113608;28;20578;-77
2022/04/12 17:18:36;;;;;;;;;;;;;;;;;;5114796;28;20405;-77
2022/04/12 17:21:02;;;;;;;;;;;;;;;;;;5113455;28;19962;-77
2022/04/12 17:23:28;;;;;;;;;;;;;;;;;;5114256;28;19950;-76
2022/04/12 17:25:54;;;;;;;;;;;;;;;;;;5113367;28;20376;-76
2022/04/12 17:28:20;;;;;;;;;;;;;;;;;;5114055;28;19911;-77
2022/04/12 17:30:46;;;;;;;;;;;;;;;;;;5114246;27;20273;-77
2022/04/12 17:33:12;;;;;;;;;;;;;;;;;;5113623;28;19919;-80
2022/04/12 17:35:39;;;;;;;;;;;;;;;;;;5128422;27;20347;-77
2022/04/12 17:38:05;;;;;;;;;;;;;;;;;;5133950;27;19943;-78
2022/04/12 17:40:30;;;;;;;;;;;21.60;1.00;;;;;;5134690;27;20304;-79
2022/04/12 17:42:56;;;;;;;;;;;21.50;1.00;;;;;;5127678;27;19908;-78
2022/04/12 17:45:22;;;;;;;;;;;;;;;;;;5116235;27;20016;-77
2022/04/12 17:47:48;;;;;;;;;;;;;;;;;;5134468;27;20394;-78
2022/04/12 17:50:14;;;;;;;;;;;;;;;;;;5131623;27;19916;-77
2022/04/12 17:52:41;;;;;;;;;;;;;;;;;;5139303;27;19911;-77
2022/04/12 17:55:07;;;;;;;;;;;;;;;;;;5125528;27;19908;-78
2022/04/12 17:57:33;;;;;;;;;;;;;;;;;;5125284;28;19907;-77
2022/04/12 17:59:59;;;;;;;;;;;;;;;;;;5108186;27;19946;-77
2022/04/12 18:02:25;;;;;;;;;;;;;;;;;;5121949;27;19908;-77
2022/04/12 18:04:55;;;;;;;;;;;;;;;;;;5135396;27;19959;-75
2022/04/12 18:07:22;;;;;;;;;;;;;;;;;;5120870;28;20010;-78
2022/04/12 18:09:48;;;;;;;;;;;;;;;;;;5123241;28;19915;-78
2022/04/12 18:12:14;;;;;;;;;;;;;;;;;;5121113;28;19904;-78
2022/04/12 18:14:40;;;;;;;;;;;;;;;;;;5124112;28;19915;-79
2022/04/12 18:17:06;;;;;;;;;;;;;;;;;;5120849;28;19947;-77
2022/04/12 18:19:32;;;;;;;;;;;;;;;;;;5127595;27;19927;-78
2022/04/12 18:21:58;;;;;;;;;;;;;;;;;;5121110;28;19908;-77
2022/04/12 18:24:25;;;;;;;;;;;;;;;;;;5122419;28;19908;-78
2022/04/12 18:26:51;;;;;;;;;;;;;;;;;;5122886;28;19907;-78
2022/04/12 18:29:17;;;;;;;;;;;;;;;;;;5123992;28;19951;-78
2022/04/12 18:31:43;;;;;;;;;;;;;;;;;;5107256;28;19912;-77
2022/04/12 18:34:09;;;;;;;;;;;;;;;;;;5121452;28;19915;-78
2022/04/12 18:36:35;;;;;;;;;;;;;;;;;;5128410;27;19907;-78
2022/04/12 18:39:01;;;;;;;;;;;;;;;;;;5132468;27;20004;-78
2022/04/12 18:41:27;;;;;;;;;;;;;;;;;;5114417;28;19907;-75
2022/04/12 18:43:53;;;;;;;;;;;;;;;;;;5133715;27;19956;-75
2022/04/12 18:46:19;;;;;;;;;;;;;;;;;;5131526;27;19907;-75
2022/04/12 18:48:47;;;;;;;;;;;;;;;;;;5131725;27;20402;-75
2022/04/12 18:51:13;;;;;;;;;;;;;;;;;;5125828;28;19920;-77
2022/04/12 18:53:39;;;;;;;;;;;;;;;;;;5127283;28;19911;-77
2022/04/12 18:56:06;;;;;;;;;;;;;;;;;;5132855;28;19908;-77
2022/04/12 18:58:32;;;;;;;;;;;;;;;;;;5114940;28;19908;-76
2022/04/12 19:00:57;;;;;;;;;;;;;;;;;;5132881;28;20382;-75
2022/04/12 19:03:23;;;;;;;;;;;;;;;;;;5115129;28;20375;-76
2022/04/12 19:05:49;;;;;;;;;;;;;;;;;;5133314;28;20434;-76
2022/04/12 19:08:15;;;;;;;;;;;;;;;;;;5132436;28;19907;-76
2022/04/12 19:10:41;;;;;;;;;;;;;;;;;;5133280;28;19907;-76
2022/04/12 19:13:10;;;;;;;;;;;;;;;;;;5132450;28;19914;-76
2022/04/12 19:15:38;;;;;;;;;;;;;;;;;;5124895;28;20287;-75
2022/04/12 19:18:04;;;;;;;;;;;;;;;;;;5093534;28;20322;-76
2022/04/12 19:20:30;;;;;;;;;;;;;;;;;;5112766;28;19919;-76